Time;durP1;ratioP1;P1;durP2;ratioP2;P2;SDS_P1;SDS_P2;PMS_P1;PMS_P2;Temp;Humidity;BMP_temperature;BMP_pressure;BME280_temperature;BME280_humidity;BME280_pressure;Samples;Min_cycle;Max_cycle;Signal;HPM_P1;HPM_P2
2020/12/17 00:00:38;;;;;;;26.67;23.80;;;4.10;99.90;;;;;;4995484;28;20456;-24
2020/12/17 00:03:05;;;;;;;25.83;22.27;;;4.10;99.90;;;;;;4994136;28;20441;-24
2020/12/17 00:05:32;;;;;;;23.80;20.80;;;4.10;99.90;;;;;;4994962;28;20440;-24
2020/12/17 00:07:59;;;;;;;28.80;22.20;;;4.10;99.90;;;;;;4994474;28;20452;-24
2020/12/17 00:10:26;;;;;;;36.80;25.03;;;4.10;99.90;;;;;;4993509;28;20480;-24
2020/12/17 00:12:52;;;;;;;28.47;20.47;;;4.10;99.90;;;;;;4995563;28;20448;-24
2020/12/17 00:15:20;;;;;;;29.60;23.30;;;4.10;99.90;;;;;;4995526;28;20467;-25
2020/12/17 00:17:48;;;;;;;31.33;22.30;;;4.10;99.90;;;;;;4994493;28;20529;-25
2020/12/17 00:20:16;;;;;;;27.37;22.43;;;4.10;99.90;;;;;;4993033;28;20907;-25
2020/12/17 00:22:43;;;;;;;25.20;21.30;;;4.10;99.90;;;;;;4994948;28;20444;-25
2020/12/17 00:25:13;;;;;;;29.30;22.20;;;4.20;99.90;;;;;;4993561;28;20448;-25
2020/12/17 00:27:40;;;;;;;23.37;19.73;;;4.20;99.90;;;;;;4995019;28;20448;-25
2020/12/17 00:30:09;;;;;;;29.23;22.23;;;4.30;99.90;;;;;;4993812;28;20491;-25
2020/12/17 00:32:36;;;;;;;25.00;19.30;;;4.30;99.90;;;;;;4994423;28;20436;-24
2020/12/17 00:35:04;;;;;;;27.50;20.17;;;4.30;99.90;;;;;;4994291;28;20465;-24
2020/12/17 00:37:32;;;;;;;22.53;20.10;;;4.30;99.90;;;;;;4994661;28;20444;-25
2020/12/17 00:39:59;;;;;;;22.60;19.77;;;4.40;99.90;;;;;;4994090;28;20469;-25
2020/12/17 00:42:26;;;;;;;29.97;21.10;;;4.40;99.90;;;;;;4993246;28;20472;-25
2020/12/17 00:44:53;;;;;;;22.47;18.87;;;4.40;99.90;;;;;;4985838;28;20457;-25
2020/12/17 00:47:20;;;;;;;26.07;19.43;;;4.50;99.90;;;;;;4989688;28;20827;-25
2020/12/17 00:49:47;;;;;;;25.93;21.50;;;4.50;99.90;;;;;;4974875;28;20449;-25
2020/12/17 00:52:13;;;;;;;36.47;23.47;;;4.50;99.90;;;;;;4974476;28;20977;-25
2020/12/17 00:54:41;;;;;;;55.43;28.17;;;4.60;99.90;;;;;;4976471;28;20491;-25
2020/12/17 00:57:07;;;;;;;45.40;25.27;;;4.60;99.90;;;;;;4993751;28;20447;-23
2020/12/17 00:59:35;;;;;;;36.53;23.20;;;4.60;99.90;;;;;;4993321;28;20460;-25
2020/12/17 01:02:02;;;;;;;33.83;23.00;;;4.60;99.90;;;;;;4994383;28;20432;-25
2020/12/17 01:04:29;;;;;;;40.17;27.20;;;4.60;99.90;;;;;;4991949;28;20878;-25
2020/12/17 01:06:55;;;;;;;42.47;24.43;;;4.50;99.90;;;;;;4993325;28;20440;-25
2020/12/17 01:09:22;;;;;;;38.27;26.33;;;4.60;99.90;;;;;;4992903;28;20473;-25
2020/12/17 01:11:49;;;;;;;39.00;26.90;;;4.60;99.90;;;;;;4993105;28;21099;-25
2020/12/17 01:14:16;;;;;;;32.77;25.20;;;4.50;99.90;;;;;;4993762;28;20436;-25
2020/12/17 01:16:46;;;;;;;36.77;26.30;;;4.50;99.90;;;;;;4992992;28;20456;-25
2020/12/17 01:19:13;;;;;;;44.27;27.00;;;4.50;99.90;;;;;;4992916;28;20456;-25
2020/12/17 01:21:40;;;;;;;36.57;25.40;;;4.50;99.90;;;;;;4993592;28;20436;-25
2020/12/17 01:24:07;;;;;;;29.80;23.77;;;4.50;99.90;;;;;;4994198;28;20851;-25
2020/12/17 01:26:33;;;;;;;33.70;24.30;;;4.40;99.90;;;;;;4993032;28;20436;-25
2020/12/17 01:29:00;;;;;;;30.17;22.33;;;4.40;99.90;;;;;;4993116;28;21104;-26
2020/12/17 01:31:27;;;;;;;32.20;22.50;;;4.30;99.90;;;;;;4993340;28;20554;-25
2020/12/17 01:33:54;;;;;;;28.67;22.57;;;4.30;99.90;;;;;;4992240;28;20771;-25
2020/12/17 01:36:21;;;;;;;27.50;23.00;;;4.30;99.90;;;;;;4992375;28;20440;-25
2020/12/17 01:38:48;;;;;;;25.60;20.63;;;4.30;99.90;;;;;;4991314;28;20469;-25
2020/12/17 01:41:15;;;;;;;29.53;21.70;;;4.30;99.90;;;;;;4992072;28;20448;-25
2020/12/17 01:43:43;;;;;;;28.27;22.90;;;4.20;99.90;;;;;;4992001;28;20464;-25
2020/12/17 01:46:11;;;;;;;22.37;19.33;;;4.20;99.90;;;;;;4993717;28;20464;-25
2020/12/17 01:48:39;;;;;;;29.37;21.50;;;4.10;99.90;;;;;;4997284;28;20444;-25
2020/12/17 01:51:07;;;;;;;25.60;20.63;;;4.10;99.90;;;;;;4998715;28;20542;-25
2020/12/17 01:53:37;;;;;;;26.47;20.00;;;4.10;99.90;;;;;;4997681;28;20444;-25
2020/12/17 01:56:08;;;;;;;25.20;18.57;;;4.00;99.90;;;;;;4996803;28;20444;-25
2020/12/17 01:58:40;;;;;;;22.53;18.83;;;3.90;99.90;;;;;;4997746;28;20519;-25
2020/12/17 02:01:11;;;;;;;25.73;18.70;;;3.90;99.90;;;;;;4997586;28;20448;-25
2020/12/17 02:03:38;;;;;;;20.37;17.43;;;3.90;99.90;;;;;;4996336;28;21093;-25
2020/12/17 02:06:05;;;;;;;22.73;17.60;;;3.90;99.90;;;;;;5001148;28;20484;-25
2020/12/17 02:08:37;;;;;;;23.67;18.97;;;3.90;99.90;;;;;;5002588;28;20532;-25
2020/12/17 02:11:04;;;;;;;20.87;17.07;;;3.90;99.90;;;;;;5000689;28;20480;-25
2020/12/17 02:13:32;;;;;;;25.53;18.97;;;3.90;99.90;;;;;;4997422;28;20449;-25
2020/12/17 02:16:00;;;;;;;23.43;19.33;;;3.80;99.90;;;;;;4995264;28;20475;-25
2020/12/17 02:18:27;;;;;;;25.00;19.50;;;3.80;99.90;;;;;;4995886;28;20449;-25
2020/12/17 02:20:55;;;;;;;21.47;16.87;;;3.80;99.90;;;;;;4979308;28;20436;-25
2020/12/17 02:23:22;;;;;;;21.40;17.33;;;3.80;99.90;;;;;;4996575;28;20468;-25
2020/12/17 02:25:50;;;;;;;22.90;18.17;;;3.80;99.90;;;;;;4995379;28;20444;-25
2020/12/17 02:28:17;;;;;;;20.47;18.30;;;3.70;99.90;;;;;;4995693;28;20440;-25
2020/12/17 02:30:44;;;;;;;23.43;18.57;;;3.70;99.90;;;;;;4996505;28;20571;-25
2020/12/17 02:33:11;;;;;;;23.93;18.40;;;3.70;99.90;;;;;;4977937;28;20491;-25
2020/12/17 02:35:38;;;;;;;21.63;17.97;;;3.60;99.90;;;;;;4995998;28;20463;-25
2020/12/17 02:38:06;;;;;;;23.23;18.93;;;3.60;99.90;;;;;;4995490;28;20858;-25
2020/12/17 02:40:33;;;;;;;23.00;17.03;;;3.60;99.90;;;;;;4994951;28;21121;-25
2020/12/17 02:43:00;;;;;;;24.50;17.83;;;3.60;99.90;;;;;;4995110;28;20680;-25
2020/12/17 02:45:27;;;;;;;27.13;19.20;;;3.60;99.90;;;;;;4978009;28;20464;-25
2020/12/17 02:47:54;;;;;;;20.90;17.07;;;3.60;99.90;;;;;;4995928;28;20494;-25
2020/12/17 02:50:21;;;;;;;23.10;18.37;;;3.50;99.90;;;;;;4994681;28;20506;-25
2020/12/17 02:52:47;;;;;;;24.83;18.73;;;3.50;99.90;;;;;;4994970;28;20440;-25
2020/12/17 02:55:14;;;;;;;23.23;18.73;;;3.50;99.90;;;;;;4995678;28;20447;-25
2020/12/17 02:57:41;;;;;;;23.00;18.83;;;3.50;99.90;;;;;;4992649;28;20444;-25
2020/12/17 03:00:10;;;;;;;20.50;16.43;;;3.50;99.90;;;;;;4995060;28;20558;-25
2020/12/17 03:02:37;;;;;;;20.10;16.40;;;3.40;99.90;;;;;;4995837;28;20518;-25
2020/12/17 03:05:05;;;;;;;21.10;17.73;;;3.40;99.90;;;;;;4995002;28;20456;-25
2020/12/17 03:07:33;;;;;;;24.00;19.10;;;3.40;99.90;;;;;;4995210;28;20543;-25
2020/12/17 03:10:00;;;;;;;23.00;16.80;;;3.40;99.90;;;;;;4996103;28;20484;-25
2020/12/17 03:12:28;;;;;;;20.23;17.23;;;3.40;99.90;;;;;;4996551;28;20451;-25
2020/12/17 03:14:54;;;;;;;20.93;16.17;;;3.40;99.90;;;;;;4995211;28;20456;-24
2020/12/17 03:17:22;;;;;;;20.30;16.10;;;3.30;99.90;;;;;;4995129;28;20494;-25
2020/12/17 03:19:48;;;;;;;21.70;17.80;;;3.30;99.90;;;;;;4995761;28;20468;-25
2020/12/17 03:22:15;;;;;;;21.83;16.73;;;3.30;99.90;;;;;;4995858;28;20472;-25
2020/12/17 03:24:41;;;;;;;20.50;16.33;;;3.20;99.90;;;;;;4996013;28;20467;-25
2020/12/17 03:27:08;;;;;;;20.43;18.27;;;3.20;99.90;;;;;;4995161;28;20950;-25
2020/12/17 03:29:35;;;;;;;25.43;15.80;;;3.20;99.90;;;;;;4995818;28;20440;-25
2020/12/17 03:32:02;;;;;;;19.73;16.63;;;3.20;99.90;;;;;;4994135;28;21130;-25
2020/12/17 03:34:30;;;;;;;19.53;17.03;;;3.20;99.90;;;;;;4995540;28;20722;-25
2020/12/17 03:36:56;;;;;;;17.53;15.43;;;3.20;99.90;;;;;;4994915;28;20476;-25
2020/12/17 03:39:23;;;;;;;19.10;16.87;;;3.10;99.90;;;;;;4994883;28;20495;-25
2020/12/17 03:41:50;;;;;;;18.40;16.50;;;3.10;99.90;;;;;;4995025;28;20452;-25
2020/12/17 03:44:19;;;;;;;19.73;16.77;;;3.10;99.90;;;;;;4994031;28;20445;-25
2020/12/17 03:46:47;;;;;;;19.50;15.70;;;3.10;99.90;;;;;;4993718;28;20464;-25
2020/12/17 03:49:15;;;;;;;18.20;16.07;;;3.10;99.90;;;;;;4994970;28;20472;-25
2020/12/17 03:51:43;;;;;;;17.80;14.17;;;3.10;99.90;;;;;;4995189;28;20846;-25
2020/12/17 03:54:13;;;;;;;16.13;14.53;;;3.00;99.90;;;;;;4993541;28;20445;-25
2020/12/17 03:56:40;;;;;;;16.87;14.47;;;3.00;99.90;;;;;;4994542;28;20560;-25
2020/12/17 03:59:08;;;;;;;19.67;15.20;;;3.00;99.90;;;;;;4993266;28;20472;-25
2020/12/17 04:01:37;;;;;;;18.80;15.33;;;2.90;99.90;;;;;;4993739;28;20455;-25
2020/12/17 04:04:05;;;;;;;18.13;15.67;;;2.90;99.90;;;;;;4993025;28;20544;-25
2020/12/17 04:06:32;;;;;;;19.47;15.30;;;2.90;99.90;;;;;;4992872;28;20445;-25
2020/12/17 04:09:01;;;;;;;19.83;14.53;;;2.90;99.90;;;;;;4992524;28;20445;-25
2020/12/17 04:11:28;;;;;;;19.03;15.60;;;2.90;99.90;;;;;;4991535;28;20436;-25
2020/12/17 04:13:56;;;;;;;15.23;13.63;;;2.90;99.90;;;;;;4993981;28;20441;-25
2020/12/17 04:16:23;;;;;;;17.40;14.73;;;2.90;99.90;;;;;;4993590;28;21176;-25
2020/12/17 04:18:51;;;;;;;18.80;15.07;;;2.90;99.90;;;;;;4992863;28;20526;-25
2020/12/17 04:21:17;;;;;;;16.23;13.60;;;2.90;99.90;;;;;;4993994;28;20440;-25
2020/12/17 04:23:45;;;;;;;22.10;14.50;;;3.00;99.90;;;;;;4994101;28;20478;-25
2020/12/17 04:26:14;;;;;;;24.10;16.60;;;3.00;99.90;;;;;;4994405;28;20550;-25
2020/12/17 04:28:41;;;;;;;17.07;14.43;;;3.00;99.90;;;;;;4992992;28;21130;-25
2020/12/17 04:31:08;;;;;;;17.23;14.03;;;3.00;99.90;;;;;;4992652;28;20440;-25
2020/12/17 04:33:37;;;;;;;18.83;15.73;;;2.90;99.90;;;;;;4992688;28;20448;-25
2020/12/17 04:36:06;;;;;;;16.17;14.47;;;2.90;99.90;;;;;;4974263;28;20433;-25
2020/12/17 04:38:34;;;;;;;18.10;14.57;;;2.90;99.90;;;;;;4972684;28;20469;-25
2020/12/17 04:41:04;;;;;;;20.90;15.30;;;2.90;99.90;;;;;;4980077;28;20448;-25
2020/12/17 04:43:31;;;;;;;21.60;17.30;;;2.90;99.90;;;;;;4991757;28;20747;-25
2020/12/17 04:45:59;;;;;;;20.20;16.43;;;2.90;99.90;;;;;;4991764;28;20483;-25
2020/12/17 04:48:30;;;;;;;19.50;15.53;;;2.90;99.90;;;;;;4991732;28;20440;-25
2020/12/17 04:50:58;;;;;;;22.20;17.00;;;2.90;99.90;;;;;;4991004;28;20881;-25
2020/12/17 04:53:27;;;;;;;22.47;17.10;;;2.90;99.90;;;;;;4990383;28;20885;-25
2020/12/17 04:55:56;;;;;;;21.17;15.67;;;2.90;99.90;;;;;;4991519;28;20441;-25
2020/12/17 04:58:28;;;;;;;20.07;16.80;;;2.90;99.90;;;;;;4992118;28;20480;-25
2020/12/17 05:00:56;;;;;;;19.37;15.50;;;2.90;99.90;;;;;;4990635;28;20946;-25
2020/12/17 05:03:24;;;;;;;22.83;17.40;;;2.90;99.90;;;;;;4990767;28;20444;-25
2020/12/17 05:05:54;;;;;;;19.63;15.77;;;2.90;99.90;;;;;;4990908;28;20460;-25
2020/12/17 05:08:21;;;;;;;30.50;19.53;;;2.90;99.90;;;;;;4990890;28;20913;-25
2020/12/17 05:10:48;;;;;;;31.83;23.00;;;2.80;99.90;;;;;;4990801;28;20538;-25
2020/12/17 05:13:17;;;;;;;36.20;23.90;;;2.80;99.90;;;;;;4991548;28;20651;-25
2020/12/17 05:15:45;;;;;;;31.13;26.53;;;2.80;99.90;;;;;;4990713;28;20447;-25
2020/12/17 05:18:13;;;;;;;26.67;22.00;;;2.80;99.90;;;;;;4988931;28;20449;-25
2020/12/17 05:20:41;;;;;;;22.00;17.57;;;2.90;99.90;;;;;;4990422;28;20734;-25
2020/12/17 05:23:08;;;;;;;18.10;15.50;;;2.80;99.90;;;;;;4988407;28;20460;-25
2020/12/17 05:25:38;;;;;;;18.10;15.10;;;2.90;99.90;;;;;;4970029;28;21019;-25
2020/12/17 05:28:05;;;;;;;19.77;16.10;;;2.90;99.90;;;;;;4969704;28;20842;-25
2020/12/17 05:30:34;;;;;;;42.70;28.40;;;2.80;99.90;;;;;;4977384;28;20460;-25
2020/12/17 05:33:02;;;;;;;58.60;39.87;;;2.80;99.90;;;;;;4985198;28;20441;-25
2020/12/17 05:35:35;;;;;;;80.10;54.33;;;2.80;99.90;;;;;;4985974;28;20468;-25
2020/12/17 05:38:04;;;;;;;44.67;33.27;;;2.80;99.90;;;;;;4987971;28;20886;-25
2020/12/17 05:40:36;;;;;;;34.53;24.07;;;2.80;99.90;;;;;;4985547;28;20511;-25
2020/12/17 05:43:04;;;;;;;21.13;18.27;;;2.80;99.90;;;;;;4985616;28;20866;-25
2020/12/17 05:45:35;;;;;;;22.37;18.50;;;2.80;99.90;;;;;;4987548;28;20500;-25
2020/12/17 05:48:11;;;;;;;23.40;17.70;;;2.80;99.90;;;;;;4987656;28;20541;-25
2020/12/17 05:50:50;;;;;;;19.40;17.40;;;2.80;99.90;;;;;;4985307;28;20440;-25
2020/12/17 05:53:19;;;;;;;19.50;17.57;;;2.80;99.90;;;;;;4984986;28;20529;-25
2020/12/17 05:55:48;;;;;;;20.50;17.53;;;2.80;99.90;;;;;;4985648;28;20440;-25
2020/12/17 05:58:16;;;;;;;21.20;16.90;;;2.80;99.90;;;;;;4984378;28;20483;-25
2020/12/17 06:00:43;;;;;;;20.73;16.60;;;2.70;99.90;;;;;;4984139;28;20492;-25
2020/12/17 06:03:11;;;;;;;22.73;19.73;;;2.80;99.90;;;;;;4980149;28;20441;-25
2020/12/17 06:05:44;;;;;;;21.93;19.20;;;2.80;99.90;;;;;;4981951;28;20547;-25
2020/12/17 06:08:32;;;;;;;24.80;19.07;;;2.80;99.90;;;;;;4981131;28;20443;-25
2020/12/17 06:11:04;;;;;;;24.20;20.20;;;2.80;99.90;;;;;;4981743;28;20886;-25
2020/12/17 06:13:36;;;;;;;55.40;36.90;;;2.70;99.90;;;;;;4962559;28;20445;-25
2020/12/17 06:16:05;;;;;;;34.97;27.80;;;2.70;99.90;;;;;;4960230;28;20449;-25
2020/12/17 06:18:38;;;;;;;33.47;25.60;;;2.70;99.90;;;;;;4959170;28;20441;-25
2020/12/17 06:21:09;;;;;;;28.30;22.73;;;2.70;99.90;;;;;;4977649;28;21156;-25
2020/12/17 06:23:38;;;;;;;20.13;17.40;;;2.70;99.90;;;;;;4979263;28;20443;-25
2020/12/17 06:26:08;;;;;;;20.63;17.30;;;2.80;99.90;;;;;;4979862;28;20448;-25
2020/12/17 06:28:46;;;;;;;21.70;17.17;;;2.80;99.90;;;;;;4980829;28;20797;-25
2020/12/17 06:31:16;;;;;;;24.83;21.77;;;2.70;99.90;;;;;;4977418;28;20459;-25
2020/12/17 06:33:45;;;;;;;23.93;21.20;;;2.80;99.90;;;;;;4978540;28;20514;-25
2020/12/17 06:36:20;;;;;;;38.10;30.90;;;2.70;99.90;;;;;;4972342;28;21194;-25
2020/12/17 06:38:48;;;;;;;26.17;18.50;;;2.60;99.90;;;;;;4960793;28;20494;-25
2020/12/17 06:41:17;;;;;;;20.47;18.27;;;2.60;99.90;;;;;;4959137;28;20443;-25
2020/12/17 06:43:45;;;;;;;20.60;18.10;;;2.60;99.90;;;;;;4960363;28;20656;-25
2020/12/17 06:46:36;;;;;;;22.93;15.77;;;2.60;99.90;;;;;;4958034;28;20975;-25
2020/12/17 06:49:05;;;;;;;22.90;16.53;;;2.60;99.90;;;;;;4977248;28;20484;-25
2020/12/17 06:51:37;;;;;;;20.37;15.77;;;2.60;99.90;;;;;;4979645;28;20514;-25
2020/12/17 06:54:08;;;;;;;22.03;16.93;;;2.60;99.90;;;;;;4977616;28;20479;-25
2020/12/17 06:56:40;;;;;;;21.00;17.20;;;2.60;99.90;;;;;;4976220;28;20440;-25
2020/12/17 06:59:18;;;;;;;20.30;14.77;;;2.60;99.90;;;;;;4974403;28;20570;-25
2020/12/17 07:01:47;;;;;;;20.47;14.57;;;2.70;99.90;;;;;;4971923;28;21116;-25
2020/12/17 07:04:40;;;;;;;21.10;16.13;;;2.70;99.90;;;;;;4974811;28;20479;-25
2020/12/17 07:07:18;;;;;;;22.57;17.20;;;2.70;99.90;;;;;;4972923;28;20472;-25
2020/12/17 07:09:49;;;;;;;21.90;15.40;;;2.70;99.90;;;;;;4972227;28;20463;-25
2020/12/17 07:12:41;;;;;;;19.47;15.73;;;2.80;99.90;;;;;;4972537;28;21525;-25
2020/12/17 07:15:32;;;;;;;25.17;17.90;;;2.90;99.90;;;;;;4972389;28;20476;-25
2020/12/17 07:18:18;;;;;;;29.93;19.70;;;2.90;99.90;;;;;;4971502;28;20445;-25
2020/12/17 07:20:46;;;;;;;30.10;19.20;;;3.00;99.90;;;;;;4970063;28;20486;-25
2020/12/17 07:23:14;;;;;;;28.80;19.20;;;3.10;99.90;;;;;;4975318;28;20452;-25
2020/12/17 07:25:45;;;;;;;33.60;20.30;;;3.20;99.90;;;;;;4969544;28;20547;-25
2020/12/17 07:28:15;;;;;;;30.80;21.00;;;3.40;99.90;;;;;;4969366;28;20440;-25
2020/12/17 07:30:52;;;;;;;24.23;18.53;;;3.50;99.90;;;;;;4966957;28;20448;-25
2020/12/17 07:33:42;;;;;;;26.10;18.90;;;3.70;99.90;;;;;;4961883;28;20912;-25
2020/12/17 07:36:11;;;;;;;26.97;18.10;;;3.80;99.90;;;;;;4966425;28;20543;-25
2020/12/17 07:38:41;;;;;;;26.87;17.07;;;4.00;99.90;;;;;;4960616;28;21077;-25
2020/12/17 07:41:25;;;;;;;23.93;15.93;;;4.10;99.90;;;;;;4955767;28;20445;-25
2020/12/17 07:43:55;;;;;;;14.97;11.60;;;4.20;99.90;;;;;;4961590;28;20471;-25
2020/12/17 07:46:37;;;;;;;17.60;11.77;;;4.20;99.90;;;;;;4965970;28;20445;-25
2020/12/17 07:49:20;;;;;;;17.00;12.93;;;4.20;99.90;;;;;;4961712;28;20587;-25
2020/12/17 07:51:47;;;;;;;16.60;11.90;;;4.10;99.90;;;;;;4966355;28;20460;-25
2020/12/17 07:54:19;;;;;;;14.77;13.03;;;4.10;99.90;;;;;;4955750;28;20550;-25
2020/12/17 07:56:48;;;;;;;15.57;12.20;;;4.20;99.90;;;;;;4956262;28;20464;-25
2020/12/17 07:59:24;;;;;;;16.60;13.00;;;4.30;99.90;;;;;;4957870;28;20476;-25
2020/12/17 08:01:57;;;;;;;13.13;11.70;;;4.30;99.90;;;;;;4957218;28;20547;-25
2020/12/17 08:04:24;;;;;;;12.33;10.97;;;4.30;99.90;;;;;;4962344;28;20599;-25
2020/12/17 08:06:50;;;;;;;17.97;14.23;;;4.30;99.90;;;;;;4965373;28;21291;-25
2020/12/17 08:09:18;;;;;;;17.63;12.17;;;4.40;99.90;;;;;;4964181;28;20473;-25
2020/12/17 08:11:54;;;;;;;17.37;13.57;;;4.40;99.90;;;;;;4963926;28;20444;-25
2020/12/17 08:14:22;;;;;;;14.53;11.70;;;4.50;99.90;;;;;;4961390;28;20458;-25
2020/12/17 08:16:49;;;;;;;16.43;14.23;;;4.60;99.90;;;;;;4962793;28;20440;-25
2020/12/17 08:19:16;;;;;;;18.23;15.10;;;4.60;99.90;;;;;;4963176;28;20487;-25
2020/12/17 08:21:44;;;;;;;19.67;15.73;;;4.80;99.90;;;;;;4962199;28;20509;-25
2020/12/17 08:24:11;;;;;;;16.40;13.87;;;4.90;99.90;;;;;;4963299;28;20441;-25
2020/12/17 08:26:38;;;;;;;14.57;12.87;;;4.90;99.90;;;;;;4956959;28;20448;-25
2020/12/17 08:29:06;;;;;;;15.47;12.83;;;5.00;99.90;;;;;;4954610;28;20499;-25
2020/12/17 08:31:33;;;;;;;23.07;14.17;;;5.10;99.90;;;;;;4952986;28;20444;-25
2020/12/17 08:34:01;;;;;;;20.23;16.90;;;5.10;99.90;;;;;;4956206;28;20444;-25
2020/12/17 08:36:31;;;;;;;15.90;13.37;;;5.20;99.90;;;;;;4959126;28;20456;-25
2020/12/17 08:39:03;;;;;;;19.40;15.80;;;5.20;99.90;;;;;;4963101;28;20448;-25
2020/12/17 08:41:34;;;;;;;22.80;17.60;;;5.30;99.90;;;;;;4956743;28;20451;-24
2020/12/17 08:44:03;;;;;;;17.27;15.47;;;5.20;99.90;;;;;;4953909;28;20519;-24
2020/12/17 08:46:34;;;;;;;16.43;14.33;;;5.10;99.90;;;;;;4947697;28;20440;-23
2020/12/17 08:49:04;;;;;;;17.73;15.80;;;5.10;99.90;;;;;;4957732;28;20487;-25
2020/12/17 08:51:32;;;;;;;16.43;14.70;;;5.00;99.90;;;;;;4955335;28;20444;-25
2020/12/17 08:53:58;;;;;;;17.07;15.37;;;4.90;99.90;;;;;;4953939;28;20472;-25
2020/12/17 08:56:25;;;;;;;17.40;14.47;;;5.00;99.90;;;;;;4955209;28;20468;-25
2020/12/17 08:58:53;;;;;;;18.97;15.37;;;5.10;99.90;;;;;;4957109;28;20479;-25
2020/12/17 09:01:24;;;;;;;18.83;15.80;;;5.20;99.90;;;;;;4953221;28;20436;-25
2020/12/17 09:03:53;;;;;;;18.37;15.60;;;5.30;99.90;;;;;;4956491;28;20881;-25
2020/12/17 09:06:25;;;;;;;21.23;17.57;;;5.40;99.90;;;;;;4956344;28;20451;-25
2020/12/17 09:08:52;;;;;;;23.80;16.40;;;5.50;99.90;;;;;;4960051;28;20461;-25
2020/12/17 09:11:33;;;;;;;19.07;15.83;;;5.60;99.90;;;;;;4959532;28;20595;-24
2020/12/17 09:14:19;;;;;;;19.97;16.23;;;5.60;99.90;;;;;;4947443;28;20463;-24
2020/12/17 09:16:48;;;;;;;22.10;15.80;;;5.70;99.90;;;;;;4951436;28;20463;-24
2020/12/17 09:19:16;;;;;;;19.20;16.60;;;5.80;99.90;;;;;;4956298;28;20487;-24
2020/12/17 09:21:57;;;;;;;20.00;16.60;;;5.90;99.90;;;;;;4952794;28;20445;-23
2020/12/17 09:24:27;;;;;;;17.60;15.33;;;5.90;99.90;;;;;;4954396;28;20540;-25
2020/12/17 09:26:54;;;;;;;18.03;16.20;;;5.90;99.90;;;;;;4960851;28;20470;-26
2020/12/17 09:29:21;;;;;;;21.03;17.83;;;5.90;99.90;;;;;;4954665;28;20479;-25
2020/12/17 09:31:47;;;;;;;23.23;18.03;;;6.00;99.90;;;;;;4957369;28;20540;-25
2020/12/17 09:34:16;;;;;;;26.70;19.90;;;6.10;99.90;;;;;;4957539;28;20626;-25
2020/12/17 09:36:45;;;;;;;25.60;20.80;;;6.20;99.90;;;;;;4959655;28;20492;-25
2020/12/17 09:39:15;;;;;;;20.67;18.30;;;6.40;99.90;;;;;;4958992;28;20480;-25
2020/12/17 09:41:54;;;;;;;23.40;20.87;;;6.50;99.90;;;;;;4959296;28;20460;-22
2020/12/17 09:44:29;;;;;;;18.50;16.20;;;6.60;99.90;;;;;;4957873;28;20447;-25
2020/12/17 09:46:56;;;;;;;21.17;18.90;;;6.70;99.90;;;;;;4959022;28;20526;-25
2020/12/17 09:49:31;;;;;;;19.17;16.13;;;6.80;99.90;;;;;;4959277;28;20479;-24
2020/12/17 09:52:06;;;;;;;20.77;18.57;;;6.80;99.90;;;;;;4937231;28;20898;-25
2020/12/17 09:54:33;;;;;;;21.57;19.37;;;7.00;99.90;;;;;;4959211;28;20458;-24
2020/12/17 09:57:02;;;;;;;20.53;15.90;;;7.20;99.90;;;;;;4955577;28;20452;-25
2020/12/17 09:59:29;;;;;;;18.30;16.30;;;7.40;99.90;;;;;;4953904;28;21143;-25
2020/12/17 10:01:57;;;;;;;17.40;15.50;;;7.60;99.90;;;;;;4932851;28;21200;-25
2020/12/17 10:04:23;;;;;;;14.33;12.33;;;7.90;99.90;;;;;;4940714;28;20814;-25
2020/12/17 10:06:51;;;;;;;14.80;11.77;;;8.10;99.90;;;;;;4949972;28;20444;-25
2020/12/17 10:09:18;;;;;;;13.73;9.80;;;8.30;99.90;;;;;;4936222;28;20447;-25
2020/12/17 10:11:48;;;;;;;11.37;10.20;;;8.50;99.90;;;;;;4966974;28;20490;-25
2020/12/17 10:14:15;;;;;;;10.93;9.83;;;8.70;99.90;;;;;;4976952;28;21125;-25
2020/12/17 10:16:42;;;;;;;11.13;10.17;;;8.80;99.90;;;;;;4971647;28;20559;-25
2020/12/17 10:19:09;;;;;;;13.87;12.47;;;8.70;99.90;;;;;;4940226;28;20455;-25
2020/12/17 10:21:36;;;;;;;12.07;10.80;;;8.60;99.90;;;;;;4957316;28;20881;-25
2020/12/17 10:24:04;;;;;;;12.03;10.77;;;8.50;99.90;;;;;;4958663;28;20897;-25
2020/12/17 10:26:31;;;;;;;11.83;10.80;;;8.40;99.90;;;;;;4963102;28;20451;-25
2020/12/17 10:28:59;;;;;;;12.13;10.87;;;8.10;99.90;;;;;;4955432;28;20551;-25
2020/12/17 10:31:27;;;;;;;16.27;12.53;;;8.00;99.90;;;;;;4962436;28;20456;-25
2020/12/17 10:33:54;;;;;;;12.57;11.40;;;7.90;99.90;;;;;;4952145;28;20546;-25
2020/12/17 10:36:21;;;;;;;13.70;11.90;;;8.00;99.90;;;;;;4940370;28;20527;-25
2020/12/17 10:38:49;;;;;;;14.43;12.70;;;8.10;99.90;;;;;;4934302;28;20460;-25
2020/12/17 10:41:18;;;;;;;13.27;12.07;;;8.30;99.90;;;;;;4947084;28;20530;-25
2020/12/17 10:43:45;;;;;;;13.87;12.43;;;8.40;99.90;;;;;;4957203;28;20448;-25
2020/12/17 10:46:12;;;;;;;15.47;13.87;;;8.60;99.90;;;;;;4960900;28;20491;-25
2020/12/17 10:48:42;;;;;;;15.10;13.60;;;8.70;99.90;;;;;;4961927;28;20468;-25
2020/12/17 10:51:09;;;;;;;15.53;13.93;;;8.80;99.90;;;;;;4938255;28;20753;-25
2020/12/17 10:53:37;;;;;;;13.80;12.20;;;8.90;99.90;;;;;;4950890;28;20468;-25
2020/12/17 10:56:06;;;;;;;14.70;12.53;;;9.10;99.90;;;;;;4932843;28;20448;-25
2020/12/17 10:58:34;;;;;;;13.57;12.13;;;9.10;99.90;;;;;;4963475;28;20526;-25
2020/12/17 11:01:01;;;;;;;13.50;12.17;;;9.10;99.90;;;;;;4961391;28;20491;-25
2020/12/17 11:03:29;;;;;;;14.20;12.90;;;9.20;99.90;;;;;;4962809;28;20452;-25
2020/12/17 11:05:56;;;;;;;12.20;10.90;;;9.40;99.90;;;;;;4950530;28;21078;-25
2020/12/17 11:08:25;;;;;;;12.77;11.60;;;9.50;99.90;;;;;;4960211;28;20448;-25
2020/12/17 11:10:52;;;;;;;12.10;11.10;;;9.50;99.90;;;;;;4962496;28;20573;-25
2020/12/17 11:13:19;;;;;;;13.93;12.63;;;9.70;99.90;;;;;;4964083;28;20425;-25
2020/12/17 11:15:49;;;;;;;12.97;11.67;;;9.80;99.90;;;;;;4952643;28;20877;-25
2020/12/17 11:18:17;;;;;;;13.17;11.87;;;9.90;99.90;;;;;;4964544;28;20959;-25
2020/12/17 11:20:44;;;;;;;14.50;12.13;;;10.00;99.90;;;;;;4956298;28;20534;-25
2020/12/17 11:23:11;;;;;;;16.83;15.30;;;10.00;99.90;;;;;;4948196;28;20941;-25
2020/12/17 11:25:39;;;;;;;14.40;13.10;;;10.10;99.90;;;;;;4943128;28;20448;-25
2020/12/17 11:28:06;;;;;;;14.70;13.20;;;10.10;99.90;;;;;;4957487;28;20447;-25
2020/12/17 11:30:33;;;;;;;14.00;12.70;;;10.20;99.90;;;;;;4960364;28;20488;-25
2020/12/17 11:33:00;;;;;;;13.67;12.10;;;10.30;99.90;;;;;;4960455;28;20847;-25
2020/12/17 11:35:28;;;;;;;12.03;10.77;;;10.40;99.90;;;;;;4962866;28;20874;-25
2020/12/17 11:37:55;;;;;;;11.53;10.43;;;10.50;99.90;;;;;;4957185;28;20456;-25
2020/12/17 11:40:23;;;;;;;11.30;10.20;;;10.60;99.90;;;;;;4956586;28;20498;-25
2020/12/17 11:42:50;;;;;;;11.90;10.40;;;10.70;99.90;;;;;;4963014;28;20445;-24
2020/12/17 11:45:17;;;;;;;12.87;10.73;;;10.70;99.90;;;;;;4959594;28;20581;-24
2020/12/17 11:47:44;;;;;;;11.57;10.33;;;10.60;99.90;;;;;;4958494;28;20713;-24
2020/12/17 11:50:12;;;;;;;11.87;10.70;;;10.50;99.90;;;;;;4950741;28;20811;-24
2020/12/17 11:52:39;;;;;;;13.53;11.93;;;10.50;99.90;;;;;;4943454;28;20563;-24
2020/12/17 11:55:08;;;;;;;13.80;11.73;;;10.60;99.90;;;;;;4938817;28;20982;-25
2020/12/17 11:57:36;;;;;;;13.93;12.37;;;10.70;99.90;;;;;;4956642;28;21067;-25
2020/12/17 12:00:05;;;;;;;11.90;10.90;;;10.80;99.90;;;;;;4977235;28;20562;-25
2020/12/17 12:02:32;;;;;;;12.40;11.30;;;11.10;99.90;;;;;;4962252;28;20642;-25
2020/12/17 12:04:59;;;;;;;11.87;10.77;;;11.40;99.90;;;;;;4964123;28;21250;-24
2020/12/17 12:07:27;;;;;;;12.20;11.10;;;11.60;99.90;;;;;;4948954;28;20483;-25
2020/12/17 12:09:54;;;;;;;12.00;10.47;;;11.60;99.90;;;;;;4947920;28;21216;-25
2020/12/17 12:12:21;;;;;;;14.27;12.80;;;11.60;99.90;;;;;;4942759;28;20471;-24
2020/12/17 12:14:47;;;;;;;13.00;11.67;;;11.50;99.90;;;;;;4945174;28;20526;-25
2020/12/17 12:17:14;;;;;;;16.03;12.03;;;11.50;99.90;;;;;;4944676;28;20906;-25
2020/12/17 12:19:40;;;;;;;17.20;15.53;;;11.40;99.90;;;;;;4965934;28;20653;-25
2020/12/17 12:22:07;;;;;;;13.77;12.37;;;11.40;99.90;;;;;;4965386;28;20471;-25
2020/12/17 12:24:34;;;;;;;15.40;11.50;;;11.50;99.90;;;;;;4968082;28;20441;-25
2020/12/17 12:27:15;;;;;;;17.40;13.40;;;11.60;99.90;;;;;;4960357;28;20461;-25
2020/12/17 12:29:42;;;;;;;12.23;11.13;;;11.60;99.90;;;;;;4944906;28;20861;-25
2020/12/17 12:32:09;;;;;;;13.00;11.80;;;11.60;99.90;;;;;;4972728;28;20460;-25
2020/12/17 12:34:35;;;;;;;12.17;10.90;;;11.60;99.90;;;;;;4960680;28;21053;-25
2020/12/17 12:37:02;;;;;;;13.70;12.50;;;11.60;99.90;;;;;;4941835;28;20890;-25
2020/12/17 12:39:29;;;;;;;13.90;12.50;;;11.60;99.90;;;;;;4946826;28;20556;-26
2020/12/17 12:41:56;;;;;;;15.07;13.50;;;11.60;99.90;;;;;;4954765;28;20499;-24
2020/12/17 12:44:27;;;;;;;13.90;12.60;;;11.60;99.90;;;;;;4965163;28;20459;-25